createdAt,value
2022-08-18T00:01:14.773Z,0.10
2022-08-18T00:03:56.860Z,0.10
2022-08-18T00:06:32.389Z,0.10
2022-08-18T00:09:01.917Z,0.20
2022-08-18T00:11:41.588Z,0.10
2022-08-18T00:14:21.235Z,0.10
2022-08-18T00:16:52.175Z,0.20
2022-08-18T00:19:20.087Z,0.20
2022-08-18T00:22:14.547Z,0.30
2022-08-18T00:24:48.521Z,0.17
2022-08-18T00:27:21.663Z,0.10
2022-08-18T00:29:51.620Z,0.10
2022-08-18T00:32:23.260Z,0.40
2022-08-18T00:34:51.871Z,0.10
2022-08-18T00:37:21.349Z,0.25
2022-08-18T00:39:51.829Z,0.10
2022-08-18T00:42:27.628Z,0.22
2022-08-18T00:44:59.734Z,0.10
2022-08-18T00:47:41.091Z,0.20
2022-08-18T00:50:15.956Z,0.20
2022-08-18T00:52:50.964Z,0.20
2022-08-18T00:55:20.357Z,0.20
2022-08-18T00:57:51.603Z,0.35
2022-08-18T01:00:19.636Z,0.20
2022-08-18T01:02:52.582Z,0.43
2022-08-18T01:05:25.659Z,0.20
2022-08-18T01:07:55.038Z,0.20
2022-08-18T01:10:25.135Z,0.30
2022-08-18T01:12:55.550Z,0.20
2022-08-18T01:15:28.391Z,0.15
2022-08-18T01:18:18.028Z,0.30
2022-08-18T01:21:11.378Z,0.30
2022-08-18T01:23:41.367Z,0.20
2022-08-18T01:26:09.348Z,0.10
2022-08-18T01:28:41.312Z,0.40
2022-08-18T01:31:11.201Z,0.30
2022-08-18T01:33:42.272Z,0.20
2022-08-18T01:36:14.421Z,0.45
2022-08-18T01:38:44.386Z,0.50
2022-08-18T01:41:28.893Z,0.45
2022-08-18T01:43:59.263Z,0.57
2022-08-18T01:46:27.898Z,0.50
2022-08-18T01:49:01.401Z,0.77
2022-08-18T01:51:40.084Z,0.73
2022-08-18T01:54:12.965Z,0.85
2022-08-18T01:56:42.207Z,1.08
2022-08-18T01:59:14.389Z,2.17
2022-08-18T02:01:50.404Z,0.90
2022-08-18T02:04:40.583Z,1.17
2022-08-18T02:07:12.667Z,1.25
2022-08-18T02:09:43.920Z,1.92
2022-08-18T02:12:12.120Z,2.70
2022-08-18T02:14:40.155Z,4.07
2022-08-18T02:17:11.088Z,2.45
2022-08-18T02:19:41.147Z,1.95
2022-08-18T02:22:11.143Z,2.63
2022-08-18T02:24:40.977Z,2.55
2022-08-18T02:27:10.969Z,3.05
2022-08-18T02:29:39.379Z,3.03
2022-08-18T02:32:08.715Z,3.95
2022-08-18T02:34:36.777Z,3.65
2022-08-18T02:37:05.027Z,3.83
2022-08-18T02:39:35.212Z,3.15
2022-08-18T02:42:05.282Z,3.00
2022-08-18T02:44:33.543Z,2.63
2022-08-18T02:47:01.712Z,3.45
2022-08-18T02:49:29.589Z,3.67
2022-08-18T02:51:57.569Z,2.88
2022-08-18T02:54:27.136Z,3.97
2022-08-18T02:56:57.084Z,2.65
2022-08-18T02:59:28.485Z,2.88
2022-08-18T03:01:59.941Z,3.78
2022-08-18T03:04:32.567Z,4.22
2022-08-18T03:07:06.748Z,5.50
2022-08-18T03:09:36.067Z,4.18
2022-08-18T03:12:07.149Z,3.88
2022-08-18T03:14:37.211Z,4.43
2022-08-18T03:17:06.306Z,4.15
2022-08-18T03:19:34.494Z,4.15
2022-08-18T03:22:03.710Z,4.72
2022-08-18T03:24:33.094Z,5.85
2022-08-18T03:27:04.401Z,4.82
2022-08-18T03:29:33.086Z,5.05
2022-08-18T03:32:03.434Z,3.72
2022-08-18T03:34:32.247Z,4.47
2022-08-18T03:37:00.984Z,3.10
2022-08-18T03:39:29.740Z,2.92
2022-08-18T03:42:01.718Z,2.47
2022-08-18T03:44:32.309Z,2.95
2022-08-18T03:47:02.742Z,2.50
2022-08-18T03:49:33.646Z,2.08
2022-08-18T03:52:02.523Z,2.30
2022-08-18T03:54:32.046Z,2.60
2022-08-18T03:57:00.553Z,2.38
2022-08-18T03:59:31.776Z,2.08
2022-08-18T04:02:00.379Z,2.13
2022-08-18T04:04:29.892Z,2.75
2022-08-18T04:07:04.550Z,2.55
2022-08-18T04:09:33.976Z,2.47
2022-08-18T04:12:15.286Z,2.25
2022-08-18T04:14:47.905Z,1.77
2022-08-18T04:17:16.235Z,2.38
2022-08-18T04:19:44.229Z,2.35
2022-08-18T04:22:18.181Z,2.60
2022-08-18T04:24:47.176Z,2.13
2022-08-18T04:27:17.892Z,1.92
2022-08-18T04:29:48.044Z,1.98
2022-08-18T04:32:16.073Z,2.55
2022-08-18T04:34:44.418Z,3.28
2022-08-18T04:37:17.225Z,2.00
2022-08-18T04:39:46.011Z,1.80
2022-08-18T04:42:14.102Z,1.95
2022-08-18T04:44:42.567Z,2.22
2022-08-18T04:47:11.138Z,2.33
2022-08-18T04:49:39.066Z,2.25
2022-08-18T04:52:40.141Z,3.33
2022-08-18T04:55:11.523Z,2.15
2022-08-18T04:57:40.222Z,2.58
2022-08-18T05:00:11.897Z,2.10
2022-08-18T05:02:39.800Z,2.75
2022-08-18T05:05:11.078Z,3.35
2022-08-18T05:07:45.729Z,2.95
2022-08-18T05:10:17.469Z,2.38
2022-08-18T05:12:48.344Z,1.27
2022-08-18T05:15:17.656Z,2.17
2022-08-18T05:17:47.650Z,2.40
2022-08-18T05:20:18.750Z,2.33
2022-08-18T05:22:47.807Z,3.67
2022-08-18T05:25:17.406Z,3.33
2022-08-18T05:27:45.475Z,2.75
2022-08-18T05:30:14.494Z,3.58
2022-08-18T05:32:48.671Z,2.80
2022-08-18T05:35:24.388Z,2.60
2022-08-18T05:38:16.069Z,4.25
2022-08-18T05:40:47.656Z,2.70
2022-08-18T05:43:17.507Z,3.70
2022-08-18T05:45:45.429Z,3.35
2022-08-18T05:48:14.932Z,3.05
2022-08-18T05:50:43.337Z,4.88
2022-08-18T05:53:15.171Z,3.85
2022-08-18T05:56:12.197Z,4.78
2022-08-18T05:58:44.095Z,3.75
2022-08-18T06:01:17.046Z,3.60
2022-08-18T06:03:50.893Z,3.75
2022-08-18T06:06:21.404Z,2.78
2022-08-18T06:08:55.058Z,3.70
2022-08-18T06:11:25.742Z,4.20
2022-08-18T06:13:59.122Z,3.30
2022-08-18T06:16:40.153Z,4.00
2022-08-18T06:19:23.857Z,5.05
2022-08-18T06:22:01.572Z,3.75
2022-08-18T06:24:37.101Z,5.38
2022-08-18T06:27:15.141Z,4.70
2022-08-18T06:29:58.814Z,5.25
2022-08-18T06:32:41.644Z,4.78
2022-08-18T06:35:19.060Z,5.05
2022-08-18T06:38:15.661Z,5.53
2022-08-18T06:40:43.521Z,5.80
2022-08-18T06:43:17.081Z,5.60
2022-08-18T06:45:51.922Z,7.55
2022-08-18T06:48:27.099Z,8.60
2022-08-18T06:51:00.358Z,7.93
2022-08-18T06:53:53.534Z,9.13
2022-08-18T06:56:26.213Z,9.93
2022-08-18T06:59:14.437Z,12.43
2022-08-18T07:01:43.077Z,10.32
2022-08-18T07:04:14.070Z,10.57
2022-08-18T07:06:41.945Z,12.65
2022-08-18T07:09:23.090Z,11.50
2022-08-18T07:12:04.120Z,10.38
2022-08-18T07:14:42.918Z,13.98
2022-08-18T07:17:13.307Z,13.00
2022-08-18T07:19:41.727Z,12.32
2022-08-18T07:22:18.015Z,13.55
2022-08-18T07:24:48.526Z,13.90
2022-08-18T07:27:18.951Z,12.75
2022-08-18T07:30:03.304Z,12.73
2022-08-18T07:32:36.242Z,13.25
2022-08-18T07:35:08.429Z,11.18
2022-08-18T07:37:44.231Z,9.25
2022-08-18T07:40:23.332Z,9.40
2022-08-18T07:43:01.428Z,10.13
2022-08-18T07:45:37.065Z,8.60
2022-08-18T07:48:34.667Z,8.63
2022-08-18T07:51:08.763Z,8.43
2022-08-18T07:53:54.812Z,8.85
2022-08-18T07:56:37.001Z,10.80
2022-08-18T07:59:13.458Z,8.93
2022-08-18T08:01:50.034Z,10.00
2022-08-18T08:04:33.462Z,7.35
2022-08-18T08:07:25.808Z,9.57
2022-08-18T08:10:02.791Z,9.60
2022-08-18T08:12:38.017Z,9.60
2022-08-18T08:15:18.328Z,11.35
2022-08-18T08:18:06.047Z,11.02
2022-08-18T08:20:40.981Z,13.18
2022-08-18T08:23:19.492Z,10.68
2022-08-18T08:26:01.628Z,10.55
2022-08-18T08:28:42.265Z,8.98
2022-08-18T08:34:11.973Z,11.38
2022-08-18T08:36:41.996Z,9.02
2022-08-18T08:39:15.362Z,8.00
2022-08-18T08:41:49.927Z,7.70
2022-08-18T08:44:24.830Z,7.45
2022-08-18T08:47:00.506Z,7.40
2022-08-18T08:49:38.983Z,8.50
2022-08-18T08:52:18.744Z,7.07
2022-08-18T08:54:53.560Z,7.20
2022-08-18T08:57:24.279Z,7.28
2022-08-18T08:59:53.451Z,6.75
2022-08-18T09:02:49.000Z,5.28
2022-08-18T09:05:23.132Z,7.97
2022-08-18T09:08:27.946Z,7.80
2022-08-18T09:11:18.938Z,5.95
2022-08-18T09:14:17.641Z,7.00
2022-08-18T09:16:56.891Z,8.57
2022-08-18T09:19:41.380Z,7.25
2022-08-18T09:22:19.620Z,8.20
2022-08-18T09:24:51.226Z,8.15
2022-08-18T09:27:48.498Z,6.75
2022-08-18T09:30:42.232Z,7.97
2022-08-18T09:33:24.800Z,7.28
2022-08-18T09:36:20.347Z,6.65
2022-08-18T09:39:11.656Z,3.95
2022-08-18T09:41:50.189Z,4.65
2022-08-18T09:44:51.225Z,5.45
2022-08-18T09:47:51.672Z,4.95
2022-08-18T09:50:55.642Z,6.13
2022-08-18T09:53:49.128Z,4.18
2022-08-18T09:56:57.422Z,3.60
2022-08-18T10:00:19.763Z,4.97
2022-08-18T10:03:33.770Z,4.28
2022-08-18T10:06:20.590Z,2.90
2022-08-18T10:09:14.719Z,4.20
2022-08-18T10:12:15.831Z,3.80
2022-08-18T10:18:34.021Z,3.53
2022-08-18T10:21:09.966Z,3.15
2022-08-18T10:24:02.843Z,4.63
2022-08-18T10:27:13.381Z,3.45
2022-08-18T10:30:05.012Z,4.30
2022-08-18T10:32:54.512Z,4.03
2022-08-18T10:35:59.141Z,4.75
2022-08-18T10:38:45.870Z,3.85
2022-08-18T10:41:25.164Z,4.18
2022-08-18T10:43:57.459Z,3.90
2022-08-18T10:46:32.887Z,3.17
2022-08-18T10:49:18.283Z,3.45
2022-08-18T10:52:10.647Z,2.45
2022-08-18T10:54:57.336Z,3.17
2022-08-18T10:57:33.928Z,1.80
2022-08-18T11:00:07.010Z,2.20
2022-08-18T11:03:42.514Z,3.15
2022-08-18T11:06:04.358Z,1.17
2022-08-18T11:08:45.115Z,1.80
2022-08-18T11:11:33.639Z,1.85
2022-08-18T11:14:16.937Z,1.25
2022-08-18T11:16:55.815Z,1.38
2022-08-18T11:19:25.917Z,0.57
2022-08-18T11:21:54.599Z,0.80
2022-08-18T11:24:25.562Z,0.28
2022-08-18T11:26:56.140Z,0.40
2022-08-18T11:29:28.682Z,0.35
2022-08-18T11:32:03.828Z,0.38
2022-08-18T11:34:41.339Z,0.60
2022-08-18T11:37:51.250Z,0.20
2022-08-18T11:43:29.847Z,0.40
2022-08-18T11:46:16.585Z,0.50
2022-08-18T11:48:53.113Z,0.60
2022-08-18T11:51:27.083Z,0.35
2022-08-18T11:53:59.755Z,0.30
2022-08-18T11:56:31.173Z,0.32
2022-08-18T11:59:01.734Z,0.20
2022-08-18T12:01:36.156Z,0.50
2022-08-18T12:04:21.918Z,0.40
2022-08-18T12:07:01.099Z,0.10
2022-08-18T12:12:33.289Z,0.28
2022-08-18T12:15:25.286Z,0.20
2022-08-18T12:17:58.007Z,0.10
2022-08-18T12:20:26.005Z,0.20
2022-08-18T12:22:58.166Z,0.35
2022-08-18T12:25:26.086Z,0.20
2022-08-18T12:27:54.389Z,0.20
2022-08-18T12:30:22.344Z,0.10
2022-08-18T12:35:41.871Z,0.20
2022-08-18T12:38:13.905Z,0.10
2022-08-18T12:40:42.908Z,0.22
2022-08-18T12:43:10.835Z,0.10
2022-08-18T12:45:39.249Z,0.15
2022-08-18T12:48:08.045Z,0.10
2022-08-18T12:50:50.277Z,0.10
2022-08-18T12:53:30.206Z,0.20
2022-08-18T12:56:08.559Z,0.30
2022-08-18T12:58:40.561Z,0.10
2022-08-18T13:01:08.667Z,0.10
2022-08-18T13:03:38.605Z,0.10
2022-08-18T13:06:11.492Z,0.10
2022-08-18T13:08:48.080Z,0.10
2022-08-18T13:11:21.687Z,0.10
2022-08-18T13:13:56.181Z,0.10
2022-08-18T13:16:30.546Z,0.10
2022-08-18T13:19:08.054Z,0.10
2022-08-18T13:21:41.074Z,0.15
2022-08-18T13:24:12.663Z,0.10
2022-08-18T13:26:45.861Z,0.10
2022-08-18T13:29:15.481Z,0.10
2022-08-18T13:31:55.378Z,0.10
2022-08-18T13:34:24.401Z,0.10
2022-08-18T13:36:52.400Z,0.10
2022-08-18T13:39:24.151Z,0.10
2022-08-18T13:41:54.831Z,0.10
2022-08-18T13:44:27.270Z,0.10
2022-08-18T13:46:56.105Z,0.10
2022-08-18T13:49:30.504Z,0.10
2022-08-18T13:52:00.345Z,0.10
2022-08-18T13:54:33.871Z,0.10
2022-08-18T13:57:03.695Z,0.10
2022-08-18T13:59:35.744Z,0.10
2022-08-18T14:02:08.617Z,0.10
2022-08-18T14:04:38.353Z,0.10
2022-08-18T14:07:10.516Z,0.10
2022-08-18T14:09:40.992Z,0.15
2022-08-18T14:12:22.404Z,0.30
2022-08-18T14:14:53.026Z,0.10
2022-08-18T14:17:22.522Z,0.10
2022-08-18T14:20:10.674Z,0.10
2022-08-18T14:23:08.187Z,0.10
2022-08-18T14:25:55.130Z,0.10
2022-08-18T14:28:24.956Z,0.10
2022-08-18T14:30:54.505Z,0.10
2022-08-18T14:33:34.345Z,0.10
2022-08-18T14:36:13.050Z,0.10
2022-08-18T14:38:41.523Z,0.17
2022-08-18T14:41:13.319Z,0.10
2022-08-18T14:43:51.616Z,0.10
2022-08-18T14:46:33.695Z,0.20
2022-08-18T14:49:03.977Z,0.10
2022-08-18T14:51:33.645Z,0.10
2022-08-18T14:54:02.127Z,0.10
2022-08-18T14:56:33.345Z,0.10
2022-08-18T14:59:07.755Z,0.35
2022-08-18T15:01:36.760Z,0.10
2022-08-18T15:04:19.307Z,0.10
2022-08-18T15:06:56.552Z,0.10
2022-08-18T15:09:27.285Z,0.10
2022-08-18T15:11:58.394Z,0.10
2022-08-18T15:14:32.936Z,0.10
2022-08-18T15:17:02.938Z,0.10
2022-08-18T15:19:59.254Z,0.10
2022-08-18T15:22:36.695Z,0.10
2022-08-18T15:25:24.084Z,0.10
2022-08-18T15:27:53.858Z,0.10
2022-08-18T15:30:22.966Z,0.08
2022-08-18T15:32:51.690Z,0.10
2022-08-18T15:35:20.425Z,0.10
2022-08-18T15:37:51.478Z,0.10
2022-08-18T15:40:35.489Z,0.10
2022-08-18T15:43:09.587Z,0.10
2022-08-18T15:45:43.415Z,0.10
2022-08-18T15:48:26.284Z,0.10
2022-08-18T15:50:54.424Z,0.10
2022-08-18T15:53:29.769Z,0.10
2022-08-18T15:55:58.461Z,0.10
2022-08-18T15:58:33.740Z,0.10
2022-08-18T16:01:02.770Z,0.20
2022-08-18T16:03:50.000Z,0.10
2022-08-18T16:06:27.746Z,0.10
2022-08-18T16:09:01.725Z,0.00
2022-08-18T16:11:30.026Z,0.10
2022-08-18T16:13:59.990Z,0.10
2022-08-18T16:16:35.511Z,0.10
2022-08-18T16:19:05.242Z,0.10
2022-08-18T16:21:33.358Z,0.10
2022-08-18T16:24:01.688Z,0.10
2022-08-18T16:26:30.192Z,0.10
2022-08-18T16:29:01.717Z,0.10
2022-08-18T16:31:30.528Z,0.00
2022-08-18T16:33:59.015Z,0.10
2022-08-18T16:36:27.386Z,0.10
2022-08-18T16:38:58.332Z,0.00
2022-08-18T16:41:27.623Z,0.00
2022-08-18T16:43:56.387Z,0.03
2022-08-18T16:46:28.306Z,0.00
2022-08-18T16:48:57.853Z,0.00
2022-08-18T16:51:28.547Z,0.10
2022-08-18T16:53:56.647Z,0.10
2022-08-18T16:56:27.167Z,0.10
2022-08-18T16:59:13.139Z,0.00
2022-08-18T17:02:00.822Z,0.00
2022-08-18T17:04:33.582Z,0.10
2022-08-18T17:07:02.623Z,0.10
2022-08-18T17:09:30.838Z,0.10
2022-08-18T17:11:58.713Z,0.00
2022-08-18T17:14:29.269Z,0.10
2022-08-18T17:17:00.273Z,0.10
2022-08-18T17:19:31.186Z,0.10
2022-08-18T17:21:59.081Z,0.00
2022-08-18T17:24:31.930Z,0.10
2022-08-18T17:27:26.016Z,0.10
2022-08-18T17:30:03.817Z,0.10
2022-08-18T17:32:41.499Z,0.10
2022-08-18T17:35:16.788Z,0.08
2022-08-18T17:37:54.557Z,0.10
2022-08-18T17:40:28.619Z,0.10
2022-08-18T17:42:58.547Z,0.10
2022-08-18T17:45:29.501Z,0.10
2022-08-18T17:48:05.464Z,0.10
2022-08-18T17:50:54.726Z,0.10
2022-08-18T17:53:23.312Z,0.10
2022-08-18T17:55:59.993Z,0.10
2022-08-18T17:58:37.986Z,0.10
2022-08-18T18:01:06.177Z,0.10
2022-08-18T18:03:35.353Z,0.10
2022-08-18T18:06:10.746Z,0.10
2022-08-18T18:08:57.896Z,0.10
2022-08-18T18:11:32.299Z,0.20
2022-08-18T18:14:01.591Z,0.10
2022-08-18T18:16:35.079Z,0.10
2022-08-18T18:19:07.689Z,0.30
2022-08-18T18:21:53.605Z,0.10
2022-08-18T18:24:31.621Z,0.10
2022-08-18T18:26:59.471Z,0.10
2022-08-18T18:29:34.485Z,0.10
2022-08-18T18:32:07.469Z,0.10
2022-08-18T18:34:39.744Z,0.10
2022-08-18T18:37:27.319Z,0.10
2022-08-18T18:39:58.060Z,0.10
2022-08-18T18:42:28.360Z,0.10
2022-08-18T18:44:58.153Z,0.10
2022-08-18T18:47:42.440Z,0.10
2022-08-18T18:50:18.453Z,0.10
2022-08-18T18:52:56.764Z,0.10
2022-08-18T18:55:26.896Z,0.10
2022-08-18T18:58:09.902Z,0.10
2022-08-18T19:00:53.642Z,0.10
2022-08-18T19:03:29.373Z,0.10
2022-08-18T19:06:13.328Z,0.10
2022-08-18T19:08:51.908Z,0.30
2022-08-18T19:11:29.030Z,0.10
2022-08-18T19:14:03.024Z,0.10
2022-08-18T19:16:40.957Z,0.10
2022-08-18T19:19:38.394Z,0.10
2022-08-18T19:22:11.443Z,0.10
2022-08-18T19:24:48.571Z,0.17
2022-08-18T19:27:25.223Z,0.10
2022-08-18T19:29:57.972Z,0.10
2022-08-18T19:32:33.650Z,0.10
2022-08-18T19:35:04.436Z,0.10
2022-08-18T19:37:53.859Z,0.10
2022-08-18T19:40:27.510Z,0.10
2022-08-18T19:43:01.820Z,0.10
2022-08-18T19:45:34.710Z,0.10
2022-08-18T19:48:08.409Z,0.30
2022-08-18T19:50:43.100Z,0.13
2022-08-18T19:53:44.292Z,0.17
2022-08-18T19:56:26.088Z,0.10
2022-08-18T19:59:18.042Z,0.10
2022-08-18T20:01:58.725Z,0.10
2022-08-18T20:04:39.186Z,0.10
2022-08-18T20:07:52.065Z,0.10
2022-08-18T20:10:45.045Z,0.10
2022-08-18T20:13:28.174Z,0.10
2022-08-18T20:16:13.322Z,0.10
2022-08-18T20:18:43.852Z,0.10
2022-08-18T20:21:47.486Z,0.30
2022-08-18T20:24:40.362Z,0.10
2022-08-18T20:27:32.874Z,0.10
2022-08-18T20:30:40.627Z,0.10
2022-08-18T20:33:19.497Z,0.10
2022-08-18T20:35:53.082Z,0.10
2022-08-18T20:38:33.897Z,0.40
2022-08-18T20:45:01.319Z,0.10
2022-08-18T20:47:55.949Z,0.10
2022-08-18T20:51:10.679Z,0.00
2022-08-18T20:54:01.510Z,0.10
2022-08-18T20:56:43.948Z,0.10
2022-08-18T20:59:20.736Z,0.00
2022-08-18T21:01:58.989Z,0.00
2022-08-18T21:04:42.918Z,0.10
2022-08-18T21:07:36.808Z,0.10
2022-08-18T21:10:18.533Z,0.10
2022-08-18T21:13:03.963Z,0.00
2022-08-18T21:15:38.084Z,0.00
2022-08-18T21:18:19.053Z,0.10
2022-08-18T21:20:51.371Z,0.00
2022-08-18T21:23:26.906Z,0.00
2022-08-18T21:26:02.956Z,0.10
2022-08-18T21:28:37.797Z,0.00
2022-08-18T21:31:42.574Z,0.10
2022-08-18T21:34:10.175Z,0.08
2022-08-18T21:36:49.157Z,0.03
2022-08-18T21:39:19.741Z,0.00
2022-08-18T21:42:01.534Z,0.00
2022-08-18T21:44:42.490Z,0.10
2022-08-18T21:47:20.119Z,0.00
2022-08-18T21:58:48.225Z,0.10
2022-08-18T22:01:32.024Z,0.00
2022-08-18T22:04:10.418Z,0.10
2022-08-18T22:06:45.448Z,0.10
2022-08-18T22:12:51.923Z,0.05
2022-08-18T22:15:36.900Z,0.00
2022-08-18T22:18:07.643Z,0.10
2022-08-18T22:20:47.845Z,0.05
2022-08-18T22:23:54.039Z,0.00
2022-08-18T22:26:30.146Z,0.00
2022-08-18T22:29:01.971Z,0.10
2022-08-18T22:31:35.265Z,0.32
2022-08-18T22:34:07.297Z,0.08
2022-08-18T22:36:43.382Z,0.10
2022-08-18T22:39:23.754Z,0.10
2022-08-18T22:41:53.047Z,0.10
2022-08-18T22:44:23.988Z,0.10
2022-08-18T22:47:09.165Z,0.10
2022-08-18T22:49:38.996Z,0.10
2022-08-18T22:52:29.905Z,0.10
2022-08-18T22:54:59.143Z,0.10
2022-08-18T22:57:28.979Z,0.10
2022-08-18T22:59:58.223Z,0.10
2022-08-18T23:02:29.733Z,0.10
2022-08-18T23:05:04.434Z,0.08
2022-08-18T23:07:34.304Z,0.10
2022-08-18T23:10:13.971Z,0.10
2022-08-18T23:12:42.948Z,0.10
2022-08-18T23:15:15.341Z,0.10
2022-08-18T23:17:45.292Z,0.10
2022-08-18T23:20:17.433Z,0.10
2022-08-18T23:22:47.551Z,0.10
2022-08-18T23:25:15.938Z,0.10
2022-08-18T23:27:44.015Z,0.10
2022-08-18T23:30:12.567Z,0.10
2022-08-18T23:32:40.598Z,0.20
2022-08-18T23:35:10.533Z,0.00
2022-08-18T23:37:39.668Z,0.10
2022-08-18T23:40:11.312Z,0.10
2022-08-18T23:42:40.054Z,0.10
2022-08-18T23:45:08.859Z,0.10
2022-08-18T23:47:37.057Z,0.10
2022-08-18T23:50:06.344Z,0.10
2022-08-18T23:52:35.601Z,0.10
2022-08-18T23:55:05.741Z,0.10
2022-08-18T23:57:33.655Z,0.10
